Time;durP1;ratioP1;P1;durP2;ratioP2;P2;SDS_P1;SDS_P2;PMS_P1;PMS_P2;Temp;Humidity;BMP_temperature;BMP_pressure;BME280_temperature;BME280_humidity;BME280_pressure;Samples;Min_cycle;Max_cycle;Signal;HPM_P1;HPM_P2
2021/10/29 00:02:22;;;;;;;62.30;33.55;;;;;;;6.74;100.00;100400.38;5042668;28;20045;-54
2021/10/29 00:04:49;;;;;;;63.53;33.97;;;;;;;6.64;100.00;100389.25;5023120;28;20690;-53
2021/10/29 00:07:15;;;;;;;63.25;34.88;;;;;;;6.68;100.00;100397.91;5034969;28;20038;-53
2021/10/29 00:09:41;;;;;;;63.38;33.88;;;;;;;6.64;100.00;100396.28;5039198;28;20052;-53
2021/10/29 00:12:09;;;;;;;65.43;34.92;;;;;;;6.64;100.00;100401.56;5046701;28;20063;-51
2021/10/29 00:14:35;;;;;;;68.38;35.58;;;;;;;6.66;100.00;100399.72;5037614;28;20041;-53
2021/10/29 00:17:03;;;;;;;64.03;34.08;;;;;;;6.69;100.00;100397.00;5036277;28;20053;-53
2021/10/29 00:19:30;;;;;;;61.50;33.05;;;;;;;6.65;100.00;100385.72;5039121;28;20048;-54
2021/10/29 00:21:57;;;;;;;67.10;35.30;;;;;;;6.64;100.00;100391.03;5044546;28;20047;-52
2021/10/29 00:24:23;;;;;;;63.25;34.55;;;;;;;6.62;100.00;100385.81;5044470;28;20070;-52
2021/10/29 00:26:54;;;;;;;60.15;32.75;;;;;;;6.64;100.00;100394.53;5034050;28;20497;-52
2021/10/29 00:29:21;;;;;;;67.15;34.35;;;;;;;6.64;100.00;100393.66;5039082;28;20060;-54
2021/10/29 00:31:48;;;;;;;61.47;34.10;;;;;;;6.49;100.00;100375.72;5043192;28;20060;-52
2021/10/29 00:34:15;;;;;;;66.25;33.70;;;;;;;6.62;100.00;100393.69;5042526;28;20050;-54
2021/10/29 00:36:42;;;;;;;64.15;34.22;;;;;;;6.61;100.00;100397.22;5018884;28;20053;-54
2021/10/29 00:39:08;;;;;;;64.53;33.42;;;;;;;6.61;100.00;100393.78;5037668;28;20041;-51
2021/10/29 00:41:35;;;;;;;64.60;33.63;;;;;;;6.46;100.00;100381.06;5042347;28;20623;-52
2021/10/29 00:44:03;;;;;;;59.65;32.53;;;;;;;6.55;100.00;100392.19;5044131;28;20049;-53
2021/10/29 00:46:29;;;;;;;64.28;33.55;;;;;;;6.51;100.00;100387.91;5037876;28;20048;-52
2021/10/29 00:48:56;;;;;;;63.60;33.45;;;;;;;6.48;100.00;100389.78;5041136;28;20049;-54
2021/10/29 00:51:24;;;;;;;61.85;32.83;;;;;;;6.46;100.00;100389.81;5038146;28;20044;-53
2021/10/29 00:53:51;;;;;;;62.03;32.35;;;;;;;6.41;100.00;100389.13;5038970;28;20405;-52
2021/10/29 00:56:18;;;;;;;61.53;32.30;;;;;;;6.41;100.00;100393.50;5030154;28;20045;-53
2021/10/29 00:58:46;;;;;;;62.33;32.58;;;;;;;6.43;100.00;100392.56;5044944;28;20132;-53
2021/10/29 01:01:13;;;;;;;62.97;32.63;;;;;;;6.46;100.00;100391.56;5040441;28;20049;-53
2021/10/29 01:03:42;;;;;;;64.85;33.25;;;;;;;6.45;100.00;100392.53;5044038;28;20524;-54
2021/10/29 01:06:08;;;;;;;59.08;31.42;;;;;;;6.44;100.00;100385.53;5033248;28;20060;-55
2021/10/29 01:08:36;;;;;;;66.18;33.13;;;;;;;6.45;100.00;100385.50;5054801;28;20049;-53
2021/10/29 01:11:04;;;;;;;63.08;33.70;;;;;;;6.46;100.00;100384.56;5048094;28;20151;-53
2021/10/29 01:13:32;;;;;;;62.45;31.88;;;;;;;6.43;100.00;100375.91;5047436;28;20056;-53
2021/10/29 01:15:59;;;;;;;62.22;32.17;;;;;;;6.43;100.00;100386.44;5032826;28;20045;-56
2021/10/29 01:18:25;;;;;;;57.50;32.15;;;;;;;6.32;100.00;100366.56;5043555;28;20045;-56
2021/10/29 01:20:55;;;;;;;60.40;32.13;;;;;;;6.42;100.00;100379.44;5041779;28;20048;-54
2021/10/29 01:23:22;;;;;;;63.13;32.55;;;;;;;6.42;100.00;100387.34;5044372;28;20041;-52
2021/10/29 01:25:48;;;;;;;65.43;33.67;;;;;;;6.41;100.00;100390.88;5030631;28;20060;-53
2021/10/29 01:28:15;;;;;;;60.88;32.30;;;;;;;6.38;100.00;100383.06;5033998;28;20045;-53
2021/10/29 01:30:41;;;;;;;65.38;32.50;;;;;;;6.30;100.00;100380.66;5038918;28;20044;-53
2021/10/29 01:33:08;;;;;;;62.72;33.22;;;;;;;6.28;100.00;100382.50;5043182;28;20431;-52
2021/10/29 01:35:34;;;;;;;62.72;32.05;;;;;;;6.29;100.00;100378.97;5033914;28;20041;-54
2021/10/29 01:38:01;;;;;;;61.55;33.42;;;;;;;6.31;100.00;100372.72;5037394;28;20055;-53
2021/10/29 01:40:27;;;;;;;61.17;31.38;;;;;;;6.31;100.00;100366.59;5035252;28;20045;-53
2021/10/29 01:42:54;;;;;;;62.53;32.35;;;;;;;6.35;100.00;100373.50;5045969;28;20057;-54
2021/10/29 01:45:21;;;;;;;62.88;32.70;;;;;;;6.25;100.00;100351.88;5045052;28;20068;-54
2021/10/29 01:47:47;;;;;;;62.45;33.25;;;;;;;6.45;100.00;100372.34;5036198;28;20078;-53
2021/10/29 01:50:14;;;;;;;67.70;36.00;;;;;;;6.56;100.00;100364.97;5040846;28;20060;-54
2021/10/29 01:52:40;;;;;;;74.88;36.78;;;;;;;6.65;100.00;100367.28;5044649;28;20446;-53
2021/10/29 01:55:08;;;;;;;69.75;35.75;;;;;;;6.73;100.00;100366.22;5041374;28;20044;-53
2021/10/29 01:57:35;;;;;;;70.57;36.80;;;;;;;6.79;100.00;100355.47;5029478;28;20042;-53
2021/10/29 02:00:04;;;;;;;72.07;36.38;;;;;;;6.82;100.00;100353.59;5031682;28;20053;-52
2021/10/29 02:02:30;;;;;;;73.13;37.17;;;;;;;6.84;100.00;100349.16;5034230;28;20044;-54
2021/10/29 02:04:57;;;;;;;70.28;36.13;;;;;;;6.89;100.00;100349.03;5036827;28;20103;-53
2021/10/29 02:07:23;;;;;;;72.38;37.08;;;;;;;6.90;100.00;100356.88;5034458;28;20037;-52
2021/10/29 02:09:50;;;;;;;75.47;37.97;;;;;;;6.92;100.00;100354.19;5039638;28;20045;-52
2021/10/29 02:12:16;;;;;;;71.38;34.85;;;;;;;6.95;100.00;100360.19;5044733;28;20048;-53
2021/10/29 02:14:43;;;;;;;67.93;35.50;;;;;;;6.96;100.00;100355.78;5036652;28;20052;-53
2021/10/29 02:17:10;;;;;;;68.22;35.08;;;;;;;6.94;100.00;100360.22;5032359;28;20512;-54
2021/10/29 02:19:36;;;;;;;68.65;35.53;;;;;;;6.96;100.00;100355.78;5039020;28;20075;-54
2021/10/29 02:22:04;;;;;;;68.78;35.58;;;;;;;6.94;100.00;100355.84;5036058;28;20402;-53
2021/10/29 02:24:30;;;;;;;62.70;33.70;;;;;;;6.98;100.00;100353.97;5040576;28;20506;-53
2021/10/29 02:26:58;;;;;;;67.82;33.90;;;;;;;6.95;100.00;100354.06;5032294;28;20049;-53
2021/10/29 02:29:25;;;;;;;67.85;34.53;;;;;;;6.87;100.00;100349.06;5037525;28;20132;-53
2021/10/29 02:31:51;;;;;;;70.18;36.47;;;;;;;6.85;100.00;100350.03;5037645;28;20036;-55
2021/10/29 02:34:18;;;;;;;61.65;33.38;;;;;;;6.82;100.00;100347.47;5022916;28;20055;-53
2021/10/29 02:36:44;;;;;;;67.00;35.22;;;;;;;6.82;100.00;100343.06;5026588;28;20046;-54
2021/10/29 02:39:11;;;;;;;66.25;35.47;;;;;;;6.80;100.00;100344.91;5044946;28;20049;-54
2021/10/29 02:41:38;;;;;;;71.40;34.05;;;;;;;6.78;100.00;100341.44;5038603;28;20087;-53
2021/10/29 02:44:05;;;;;;;72.57;35.13;;;;;;;6.80;100.00;100341.41;5040682;28;20044;-54
2021/10/29 02:46:31;;;;;;;68.63;34.80;;;;;;;6.83;100.00;100343.94;5035833;28;20059;-54
2021/10/29 02:48:58;;;;;;;71.88;35.33;;;;;;;6.83;100.00;100339.53;5038444;28;20040;-52
2021/10/29 02:51:25;;;;;;;71.43;34.80;;;;;;;6.84;100.00;100340.41;5039584;28;20059;-52
2021/10/29 02:53:52;;;;;;;70.70;35.10;;;;;;;6.84;100.00;100340.41;5042906;28;20045;-54
2021/10/29 02:56:19;;;;;;;74.32;35.83;;;;;;;6.84;100.00;100343.03;5033442;28;20771;-54
2021/10/29 02:58:46;;;;;;;76.93;37.13;;;;;;;6.84;100.00;100337.75;5031380;28;20048;-54
2021/10/29 03:01:12;;;;;;;68.90;34.88;;;;;;;6.84;100.00;100346.53;5041050;28;20040;-53
2021/10/29 03:03:39;;;;;;;74.78;35.60;;;;;;;6.88;100.00;100347.28;5038074;28;20052;-52
2021/10/29 03:06:05;;;;;;;76.95;36.58;;;;;;;6.90;100.00;100338.44;5034704;28;20049;-52
2021/10/29 03:08:32;;;;;;;74.95;35.45;;;;;;;6.92;100.00;100334.00;5039146;28;20057;-53
2021/10/29 03:10:59;;;;;;;80.28;37.17;;;;;;;6.95;100.00;100338.25;5035465;28;20049;-53
2021/10/29 03:13:25;;;;;;;77.00;37.47;;;;;;;7.00;100.00;100341.63;5041935;28;20033;-54
2021/10/29 03:15:52;;;;;;;66.13;34.05;;;;;;;7.03;100.00;100341.53;5037146;28;21101;-54
2021/10/29 03:18:20;;;;;;;70.25;36.35;;;;;;;7.04;100.00;100344.09;5031506;28;20577;-52
2021/10/29 03:20:47;;;;;;;75.10;35.08;;;;;;;7.04;100.00;100348.50;5044173;28;20041;-52
2021/10/29 03:23:15;;;;;;;72.43;36.47;;;;;;;7.04;100.00;100348.50;5044567;28;20038;-54
2021/10/29 03:25:43;;;;;;;76.57;35.40;;;;;;;7.06;100.00;100354.59;5038935;28;20049;-53
2021/10/29 03:28:10;;;;;;;74.38;35.92;;;;;;;7.08;100.00;100350.13;5032364;28;20041;-53
2021/10/29 03:30:37;;;;;;;74.97;37.00;;;;;;;7.18;100.00;100334.88;5049208;28;20053;-53
2021/10/29 03:33:04;;;;;;;73.80;37.13;;;;;;;7.18;100.00;100341.00;5028749;28;20049;-51
2021/10/29 03:35:31;;;;;;;73.95;35.83;;;;;;;7.18;100.00;100335.75;5043660;28;20056;-53
2021/10/29 03:43:06;;;;;;;76.55;37.15;;;;;;;7.32;100.00;100319.47;5043001;28;20056;-53
2021/10/29 03:45:39;;;;;;;81.88;39.03;;;;;;;7.24;100.00;100306.53;5027196;28;20049;-53
2021/10/29 03:48:06;;;;;;;79.78;37.63;;;;;;;7.39;100.00;100335.00;5035073;28;20506;-52
2021/10/29 03:50:34;;;;;;;76.30;36.40;;;;;;;7.40;100.00;100320.91;5037065;28;20767;-54
2021/10/29 03:53:26;;;;;;;82.30;39.00;;;;;;;7.46;100.00;100318.97;5041300;28;20047;-52
2021/10/29 03:55:54;;;;;;;78.93;37.30;;;;;;;7.44;100.00;100326.06;5040813;28;20043;-52
2021/10/29 03:58:20;;;;;;;79.95;38.55;;;;;;;7.42;100.00;100322.63;5035952;28;20517;-54
2021/10/29 04:00:47;;;;;;;81.43;38.30;;;;;;;7.40;100.00;100317.41;5043296;28;20044;-54
2021/10/29 04:03:14;;;;;;;82.18;39.65;;;;;;;7.40;100.00;100313.00;5044918;28;20041;-53
2021/10/29 04:05:41;;;;;;;79.80;39.03;;;;;;;7.45;100.00;100317.25;5037043;28;20053;-53
2021/10/29 04:08:10;;;;;;;86.82;39.40;;;;;;;7.50;100.00;100307.41;5034097;28;20123;-53
2021/10/29 04:10:41;;;;;;;77.28;35.80;;;;;;;7.51;100.00;100310.00;5045974;28;20041;-53
2021/10/29 04:13:10;;;;;;;85.20;39.20;;;;;;;7.55;100.00;100308.97;5037945;28;20076;-55
2021/10/29 04:15:41;;;;;;;78.45;37.45;;;;;;;7.53;100.00;100313.44;5046031;28;20053;-54
2021/10/29 04:18:09;;;;;;;;;;;;;;;7.53;100.00;100313.44;5036537;28;20053;-53
2021/10/29 04:20:37;;;;;;;78.53;36.65;;;;;;;7.54;100.00;100307.25;5038918;28;20003;-53
2021/10/29 04:23:04;;;;;;;78.68;37.30;;;;;;;7.48;100.00;100298.69;5042278;28;20048;-53
2021/10/29 04:25:31;;;;;;;83.47;37.80;;;;;;;7.55;100.00;100310.75;5039498;28;20041;-54
2021/10/29 04:28:05;;;;;;;79.20;38.10;;;;;;;7.53;100.00;100309.94;5029463;28;20045;-53
2021/10/29 04:30:32;;;;;;;84.45;39.90;;;;;;;7.45;100.00;100291.75;5043566;28;20776;-53
2021/10/29 04:33:02;;;;;;;80.13;39.55;;;;;;;7.55;100.00;100313.38;5039641;28;20038;-53
2021/10/29 04:35:29;;;;;;;81.13;38.13;;;;;;;7.53;100.00;100295.00;5038000;28;20053;-55
2021/10/29 04:37:55;;;;;;;84.22;38.70;;;;;;;7.45;100.00;100283.84;5037368;28;20135;-53
2021/10/29 04:40:22;;;;;;;78.13;37.15;;;;;;;7.58;100.00;100314.13;5042279;28;20513;-55
2021/10/29 04:42:48;;;;;;;80.35;37.83;;;;;;;7.60;100.00;100307.03;5038906;28;20120;-54
2021/10/29 04:45:15;;;;;;;79.07;37.22;;;;;;;7.60;100.00;100303.53;5036321;28;20056;-53
2021/10/29 04:47:42;;;;;;;75.95;37.03;;;;;;;7.67;100.00;100303.25;5031843;28;20053;-54
2021/10/29 04:50:09;;;;;;;78.30;38.15;;;;;;;7.66;100.00;100300.69;5039814;28;20045;-53
2021/10/29 04:52:36;;;;;;;77.28;36.60;;;;;;;7.65;100.00;100304.22;5042084;28;20072;-55
2021/10/29 04:55:03;;;;;;;74.85;36.58;;;;;;;7.63;100.00;100300.78;5038277;28;20611;-53
2021/10/29 04:57:29;;;;;;;73.88;36.97;;;;;;;7.63;100.00;100296.38;5031884;28;20056;-52
2021/10/29 04:59:58;;;;;;;75.15;36.45;;;;;;;7.73;100.00;100288.97;5043666;28;20051;-52
2021/10/29 05:02:24;;;;;;;69.22;34.85;;;;;;;7.74;100.00;100281.00;5038936;28;20055;-54
2021/10/29 05:04:51;;;;;;;68.80;34.55;;;;;;;7.72;100.00;100284.63;5038674;28;20080;-55
2021/10/29 05:07:17;;;;;;;69.55;35.75;;;;;;;7.72;100.00;100289.88;5030891;28;20662;-53
2021/10/29 05:09:44;;;;;;;75.95;37.50;;;;;;;7.71;100.00;100288.19;5039489;28;20067;-53
2021/10/29 05:12:10;;;;;;;68.38;35.22;;;;;;;7.71;100.00;100293.47;5039675;28;20047;-54
2021/10/29 05:14:37;;;;;;;65.70;34.33;;;;;;;7.73;100.00;100296.88;5032512;28;20049;-54
2021/10/29 05:17:03;;;;;;;68.85;34.92;;;;;;;7.74;100.00;100299.47;5029107;28;20506;-53
2021/10/29 05:19:30;;;;;;;62.75;34.58;;;;;;;7.72;100.00;100292.53;5035802;28;20076;-53
2021/10/29 05:21:57;;;;;;;66.95;34.63;;;;;;;7.75;100.00;100297.69;5037937;28;20044;-54
2021/10/29 05:24:23;;;;;;;64.30;34.05;;;;;;;7.72;100.00;100279.34;5037822;28;20083;-53
2021/10/29 05:26:50;;;;;;;68.38;33.50;;;;;;;7.63;100.00;100272.66;5034619;28;20124;-53
2021/10/29 05:29:16;;;;;;;69.32;35.38;;;;;;;7.71;100.00;100288.19;5034324;28;20056;-53
2021/10/29 05:31:43;;;;;;;67.82;34.72;;;;;;;7.72;100.00;100285.47;5041266;28;20045;-54
2021/10/29 05:34:10;;;;;;;65.18;34.80;;;;;;;7.74;100.00;100288.06;5035135;28;20049;-53
2021/10/29 05:36:37;;;;;;;65.55;34.60;;;;;;;7.75;100.00;100268.69;5038138;28;20516;-53
2021/10/29 05:39:08;;;;;;;65.45;34.53;;;;;;;7.72;100.00;100274.06;5034098;28;20052;-53
2021/10/29 05:41:36;;;;;;;63.80;33.75;;;;;;;7.74;100.00;100278.38;5034578;28;20141;-53
2021/10/29 05:44:03;;;;;;;62.35;32.65;;;;;;;7.74;100.00;100274.88;5039324;28;20053;-53
2021/10/29 05:46:33;;;;;;;62.72;33.92;;;;;;;7.75;100.00;100272.19;5036340;28;20821;-53
2021/10/29 05:48:59;;;;;;;65.30;34.28;;;;;;;7.79;100.00;100278.22;5034167;28;20055;-55
2021/10/29 05:51:27;;;;;;;63.75;34.13;;;;;;;7.80;100.00;100273.81;5035378;28;20046;-53
2021/10/29 05:54:12;;;;;;;63.20;32.33;;;;;;;7.84;100.00;100283.31;5039706;28;20055;-54
2021/10/29 05:56:39;;;;;;;59.42;32.70;;;;;;;7.83;100.00;100281.59;5042876;28;20041;-53
2021/10/29 05:59:06;;;;;;;63.35;33.70;;;;;;;7.86;100.00;100273.59;5034033;28;20052;-53
2021/10/29 06:01:33;;;;;;;61.33;33.08;;;;;;;7.86;100.00;100277.09;5051145;28;20053;-56
2021/10/29 06:04:00;;;;;;;64.93;35.03;;;;;;;7.89;100.00;100265.53;5041893;28;20045;-53
2021/10/29 06:06:26;;;;;;;65.32;34.80;;;;;;;7.88;100.00;100282.28;5049734;28;20057;-51
2021/10/29 06:08:53;;;;;;;66.78;33.65;;;;;;;7.87;100.00;100280.59;5029673;28;20068;-54
2021/10/29 06:11:21;;;;;;;65.63;34.28;;;;;;;7.85;100.00;100285.91;5037325;28;20060;-52
2021/10/29 06:13:47;;;;;;;60.25;32.78;;;;;;;7.82;100.00;100280.75;5038279;28;20045;-53
2021/10/29 06:16:15;;;;;;;62.80;34.33;;;;;;;7.75;100.00;100280.09;5043901;28;20051;-53
2021/10/29 06:18:41;;;;;;;60.05;32.40;;;;;;;7.77;100.00;100277.41;5032241;28;20049;-53
2021/10/29 06:21:09;;;;;;;67.38;35.35;;;;;;;7.68;100.00;100262.81;5052160;28;20041;-53
2021/10/29 06:23:52;;;;;;;62.83;34.28;;;;;;;7.78;100.00;100276.50;5039458;28;20049;-52
2021/10/29 06:26:23;;;;;;;70.35;36.83;;;;;;;7.81;100.00;100280.81;5043603;28;20047;-54
2021/10/29 06:28:49;;;;;;;;;;;;;;;7.85;100.00;100277.13;5033930;28;20055;-53
2021/10/29 06:31:17;;;;;;;63.17;34.30;;;;;;;7.88;100.00;100285.78;5044862;28;19940;-53
2021/10/29 06:33:44;;;;;;;66.20;35.10;;;;;;;7.89;100.00;100273.44;5041363;28;20064;-52
2021/10/29 06:36:10;;;;;;;61.88;32.78;;;;;;;7.91;100.00;100274.25;5043475;28;20057;-53
2021/10/29 06:38:40;;;;;;;67.15;36.63;;;;;;;7.92;100.00;100261.00;5031483;28;20048;-54
2021/10/29 06:41:07;;;;;;;61.10;36.03;;;;;;;7.92;100.00;100255.75;5050036;28;20041;-53
2021/10/29 06:43:40;;;;;;;66.30;35.05;;;;;;;7.95;100.00;100271.44;5036877;28;20044;-53
2021/10/29 07:01:52;;;;;;;58.25;32.28;;;;;;;8.01;100.00;100271.22;5039590;28;20053;-52
2021/10/29 07:13:06;;;;;;;55.35;31.13;;;;;;;8.14;100.00;100276.03;5043583;28;20060;-52
2021/10/29 07:39:58;;;;;;;55.75;31.30;;;;;;;8.16;100.00;100268.91;5031199;28;20045;-53
2021/10/29 07:42:36;;;;;;;58.60;32.72;;;;;;;8.26;100.00;100283.44;5032676;28;20410;-52
2021/10/29 07:45:03;;;;;;;51.78;30.58;;;;;;;8.24;100.00;100283.50;5037018;28;20121;-53
2021/10/29 07:47:30;;;;;;;51.28;30.63;;;;;;;8.26;100.00;100280.81;5033095;28;20581;-52
2021/10/29 07:49:56;;;;;;;52.42;30.30;;;;;;;8.30;100.00;100279.78;5034155;28;20068;-51
2021/10/29 07:52:23;;;;;;;54.80;31.92;;;;;;;8.31;100.00;100279.72;5047025;28;20048;-55
2021/10/29 07:54:50;;;;;;;52.95;31.60;;;;;;;8.28;100.00;100266.66;5038436;28;20044;-53
2021/10/29 07:57:20;;;;;;;53.78;30.25;;;;;;;8.35;100.00;100275.19;5037305;28;20579;-53
2021/10/29 07:59:47;;;;;;;56.38;31.30;;;;;;;8.38;100.00;100280.34;5030040;28;20555;-52
2021/10/29 08:02:16;;;;;;;56.67;32.58;;;;;;;8.39;100.00;100276.78;5027613;28;20055;-51
2021/10/29 08:04:43;;;;;;;56.45;32.00;;;;;;;8.40;100.00;100268.81;5036364;28;20126;-52
2021/10/29 08:07:12;;;;;;;54.67;31.63;;;;;;;8.41;100.00;100274.97;5042279;28;20053;-53
2021/10/29 08:09:43;;;;;;;55.70;31.67;;;;;;;8.44;100.00;100275.69;5028538;28;20060;-53
2021/10/29 08:12:11;;;;;;;56.05;31.17;;;;;;;8.48;100.00;100281.72;5045205;28;20622;-51
2021/10/29 08:14:38;;;;;;;53.72;30.25;;;;;;;8.50;100.00;100279.03;5042758;28;20052;-51
2021/10/29 08:17:05;;;;;;;51.88;30.23;;;;;;;8.47;100.00;100280.00;5022421;28;20079;-51
2021/10/29 08:19:33;;;;;;;54.22;30.17;;;;;;;8.44;100.00;100274.84;5029958;28;20044;-53
2021/10/29 08:22:00;;;;;;;55.65;31.05;;;;;;;8.47;100.00;100277.38;5042004;28;20045;-52
2021/10/29 08:24:27;;;;;;;50.60;30.50;;;;;;;8.51;100.00;100278.94;5039338;28;20051;-53
2021/10/29 08:26:55;;;;;;;50.42;29.80;;;;;;;8.53;100.00;100285.00;5040158;28;20045;-53
2021/10/29 08:29:23;;;;;;;59.97;32.33;;;;;;;8.60;100.00;100275.09;5026038;28;20052;-53
2021/10/29 08:31:51;;;;;;;53.30;31.65;;;;;;;8.61;100.00;100277.66;5037184;28;20052;-53
2021/10/29 08:34:25;;;;;;;54.13;30.58;;;;;;;8.65;100.00;100273.97;5046002;28;20057;-54
2021/10/29 08:36:56;;;;;;;52.50;30.20;;;;;;;8.71;100.00;100272.84;5038874;28;20377;-51
2021/10/29 08:39:24;;;;;;;55.58;30.83;;;;;;;8.72;100.00;100269.28;5030229;28;20552;-53
2021/10/29 08:41:52;;;;;;;51.53;31.27;;;;;;;8.76;100.00;100270.88;5038443;28;20469;-53
2021/10/29 08:44:18;;;;;;;51.10;29.10;;;;;;;8.83;99.19;100258.28;5046554;28;20072;-53
2021/10/29 08:46:46;;;;;;;51.80;29.83;;;;;;;8.78;98.96;100267.28;5037390;28;20045;-52
2021/10/29 08:49:14;;;;;;;51.75;30.15;;;;;;;8.79;98.39;100270.78;5028472;28;20045;-52
2021/10/29 08:51:42;;;;;;;50.53;30.58;;;;;;;8.78;98.89;100269.91;5036749;28;20382;-54
2021/10/29 08:54:10;;;;;;;53.22;31.33;;;;;;;8.81;99.18;100268.94;5040727;28;20464;-53
2021/10/29 08:56:36;;;;;;;48.95;29.42;;;;;;;8.86;99.55;100268.72;5034869;28;20048;-53
2021/10/29 08:59:10;;;;;;;47.90;28.95;;;;;;;8.91;99.41;100272.03;5020797;28;21078;-53
2021/10/29 09:01:53;;;;;;;53.28;30.90;;;;;;;8.87;98.24;100260.72;5033960;28;20037;-52
2021/10/29 09:04:24;;;;;;;53.05;30.63;;;;;;;8.89;98.13;100260.66;5040214;28;20617;-52
2021/10/29 09:07:05;;;;;;;52.25;29.33;;;;;;;8.96;98.38;100256.88;5043563;28;20037;-52
2021/10/29 09:34:04;;;;;;;43.90;26.75;;;;;;;9.30;95.12;100246.53;5046440;28;20106;-51
2021/10/29 09:36:37;;;;;;;42.85;26.45;;;;;;;9.33;94.65;100240.25;5039622;28;20413;-52
2021/10/29 09:39:18;;;;;;;43.40;25.90;;;;;;;9.33;94.35;100243.75;5029513;28;20045;-52
2021/10/29 09:41:45;;;;;;;48.78;28.60;;;;;;;9.27;93.76;100240.53;5044991;28;20060;-52
2021/10/29 09:44:15;;;;;;;45.53;26.83;;;;;;;9.26;94.04;100239.69;5044008;28;20140;-53
2021/10/29 09:46:56;;;;;;;44.53;25.92;;;;;;;9.32;94.22;100238.53;5034367;28;20495;-53
2021/10/29 09:49:31;;;;;;;44.08;27.00;;;;;;;9.39;93.82;100238.22;5029551;28;20527;-52
2021/10/29 09:54:58;;;;;;;48.17;27.67;;;;;;;9.54;92.12;100235.81;5038484;28;20095;-53
2021/10/29 09:57:27;;;;;;;43.55;25.70;;;;;;;9.63;91.88;100233.59;5033737;28;20850;-52
2021/10/29 09:59:55;;;;;;;43.78;26.50;;;;;;;9.67;91.22;100229.03;5029930;28;20838;-53
2021/10/29 10:02:23;;;;;;;46.08;27.17;;;;;;;9.75;91.13;100222.47;5042379;28;20048;-54
2021/10/29 10:04:54;;;;;;;47.47;27.08;;;;;;;9.84;90.72;100222.03;5040565;28;20140;-53
2021/10/29 10:07:25;;;;;;;46.47;26.08;;;;;;;9.92;90.36;100211.06;5031925;28;20094;-55
2021/10/29 10:09:57;;;;;;;42.63;24.15;;;;;;;10.01;90.41;100212.44;5028508;28;20044;-53
2021/10/29 10:12:33;;;;;;;44.38;25.67;;;;;;;10.13;89.73;100212.72;5036460;28;20400;-52
2021/10/29 10:15:02;;;;;;;43.75;25.38;;;;;;;10.27;89.77;100213.88;5038160;28;20417;-53
2021/10/29 10:17:30;;;;;;;40.88;24.58;;;;;;;10.39;89.56;100211.47;5049214;28;20037;-53
2021/10/29 10:19:58;;;;;;;46.13;28.05;;;;;;;10.41;87.39;100227.28;5032992;28;20048;-54
2021/10/29 10:22:27;;;;;;;43.45;26.48;;;;;;;10.37;87.44;100218.66;5039308;28;20052;-53
2021/10/29 10:25:08;;;;;;;41.67;26.42;;;;;;;10.36;88.04;100218.72;5034226;28;20049;-53
2021/10/29 10:42:21;;;;;;;45.17;27.73;;;;;;;10.73;85.90;100186.81;5044921;28;20040;-53
2021/10/29 10:45:03;;;;;;;43.77;27.60;;;;;;;10.75;85.20;100177.00;5034205;28;20516;-52
2021/10/29 10:47:35;;;;;;;41.83;26.40;;;;;;;10.82;84.60;100174.91;5040983;28;20479;-56
2021/10/29 10:50:10;;;;;;;40.40;26.25;;;;;;;10.89;84.21;100166.56;5027019;28;20070;-53
2021/10/29 10:53:04;;;;;;;40.67;26.63;;;;;;;11.04;83.65;100167.53;5038236;28;20091;-53
2021/10/29 10:55:35;;;;;;;44.55;28.60;;;;;;;11.14;83.47;100165.28;5042678;28;20047;-52
2021/10/29 10:58:15;;;;;;;39.95;26.70;;;;;;;11.32;82.74;100159.00;5032756;28;20885;-55
2021/10/29 11:00:44;;;;;;;;;;;;;;;11.53;81.48;100149.88;5031814;28;20041;-54
2021/10/29 11:03:48;;;;;;;40.58;25.75;;;;;;;11.67;80.51;100151.75;5044815;28;19920;-54
2021/10/29 11:10:55;;;;;;;36.88;24.98;;;;;;;11.68;78.67;100139.34;5031078;28;20056;-54
2021/10/29 11:13:26;;;;;;;37.15;24.80;;;;;;;11.69;80.14;100130.47;5034617;28;20056;-54
2021/10/29 11:16:05;;;;;;;37.47;25.63;;;;;;;11.82;78.59;100131.50;5039222;28;20497;-53
2021/10/29 11:18:36;;;;;;;36.05;24.92;;;;;;;11.73;78.90;100108.13;5034372;28;20050;-54
2021/10/29 11:21:11;;;;;;;36.85;24.83;;;;;;;12.07;78.04;100134.50;5027624;28;20049;-55
2021/10/29 11:24:00;;;;;;;32.55;23.20;;;;;;;12.45;78.42;100134.06;5039311;28;20100;-54
2021/10/29 11:26:41;;;;;;;28.45;20.98;;;;;;;12.81;74.62;100117.75;5035648;28;20470;-55
2021/10/29 11:29:09;;;;;;;30.20;21.10;;;;;;;13.09;71.92;100109.78;5031675;28;20598;-54
2021/10/29 11:31:45;;;;;;;28.13;19.60;;;;;;;13.24;71.93;100121.31;5032654;28;20107;-55
2021/10/29 11:34:15;;;;;;;30.50;19.58;;;;;;;13.31;71.69;100118.19;5031861;28;20041;-54
2021/10/29 11:36:45;;;;;;;28.05;20.10;;;;;;;13.24;70.50;100114.19;5036721;28;20061;-53
2021/10/29 11:39:14;;;;;;;29.57;20.10;;;;;;;13.11;71.80;100102.56;5033639;28;20426;-54
2021/10/29 11:41:43;;;;;;;27.25;18.17;;;;;;;13.09;72.03;100099.16;5031186;28;20048;-54
2021/10/29 11:44:16;;;;;;;29.85;18.58;;;;;;;13.15;70.59;100101.47;5039611;28;20852;-54
2021/10/29 11:46:45;;;;;;;26.90;18.80;;;;;;;13.18;71.79;100098.63;5034807;28;20498;-53
2021/10/29 11:49:18;;;;;;;31.25;19.75;;;;;;;13.27;70.97;100094.53;5016904;28;20046;-52
2021/10/29 11:51:45;;;;;;;26.65;19.42;;;;;;;13.40;70.50;100089.28;5022785;28;20699;-53
2021/10/29 11:54:36;;;;;;;24.80;18.58;;;;;;;13.36;70.48;100087.78;5042056;28;20056;-54
2021/10/29 12:07:46;;;;;;;24.75;18.75;;;;;;;13.88;69.16;100061.31;5042954;28;20045;-54
2021/10/29 12:10:17;;;;;;;27.50;18.63;;;;;;;13.90;69.00;100056.75;5035044;28;20049;-54
2021/10/29 12:12:46;;;;;;;27.73;19.35;;;;;;;13.99;68.59;100051.69;5042579;28;20049;-53
2021/10/29 12:15:17;;;;;;;29.55;20.30;;;;;;;13.95;68.87;100038.69;5043152;28;20051;-52
2021/10/29 12:18:06;;;;;;;26.17;19.17;;;;;;;13.99;68.18;100040.19;5043472;28;20044;-53
2021/10/29 12:20:41;;;;;;;27.10;20.48;;;;;;;14.08;67.88;100033.38;5038476;28;20805;-52
2021/10/29 12:23:19;;;;;;;27.95;19.77;;;;;;;14.14;67.52;100027.66;5033793;28;20617;-53
2021/10/29 12:31:10;;;;;;;28.70;20.23;;;;;;;14.85;65.48;100011.19;5031634;28;20733;-52
2021/10/29 13:01:26;;;;;;;20.55;15.93;;;;;;;18.02;53.06;99971.38;4944127;28;20039;-53
2021/10/29 13:02:21;;;;;;;19.60;15.23;;;;;;;17.79;53.39;99971.47;4958763;28;20058;-52
2021/10/29 13:04:53;;;;;;;23.40;16.98;;;;;;;17.53;54.16;99962.91;5001785;28;20041;-54
2021/10/29 13:07:28;;;;;;;21.95;16.27;;;;;;;17.27;54.83;99960.69;5029239;28;20049;-54
2021/10/29 13:10:06;;;;;;;24.33;16.52;;;;;;;16.99;55.48;99949.53;5035510;28;20044;-54
2021/10/29 13:12:52;;;;;;;23.05;15.85;;;;;;;16.72;56.91;99955.25;5033294;28;20053;-53
2021/10/29 13:15:20;;;;;;;21.73;15.98;;;;;;;16.51;57.26;99948.06;5032054;28;20076;-54
2021/10/29 13:17:59;;;;;;;20.75;16.95;;;;;;;16.19;58.31;99950.56;5032120;28;20053;-54
2021/10/29 13:28:25;;;;;;;24.35;18.40;;;;;;;15.55;61.93;99953.63;5036472;28;20087;-52
2021/10/29 13:52:46;;;;;;;23.20;18.35;;;;;;;14.44;65.94;99907.53;5032975;28;20660;-52
2021/10/29 14:24:22;;;;;;;34.45;24.73;;;;;;;14.29;67.64;99926.25;5036641;28;20040;-53
2021/10/29 14:30:39;;;;;;;39.60;27.83;;;;;;;13.48;72.02;99919.44;5028004;28;20045;-53
2021/10/29 14:33:09;;;;;;;39.92;30.00;;;;;;;13.27;72.92;99911.91;5035289;28;20045;-53
2021/10/29 14:35:40;;;;;;;40.90;29.42;;;;;;;13.18;73.43;99917.84;5038100;28;20052;-54
2021/10/29 14:38:18;;;;;;;;;;;;;;;13.08;74.12;99914.03;5034110;28;20052;-54
2021/10/29 14:41:13;;;;;;;43.15;29.63;;;;;;;13.02;74.44;99914.44;5029022;28;19925;-59
2021/10/29 14:43:38;;;;;;;43.15;29.45;;;;;;;12.91;74.50;99917.78;5035902;28;20498;-53
2021/10/29 14:46:27;;;;;;;42.80;30.58;;;;;;;12.83;74.95;99914.75;5041358;28;20048;-54
2021/10/29 14:49:40;;;;;;;43.13;29.92;;;;;;;12.79;75.39;99913.25;5036407;28;20045;-54